sensor_id;sensor_type;location;lat;lon;timestamp;pressure;altitude;pressure_sealevel;temperature;humidity
54270;BME280;40181;51.560;13.000;2022-08-25T00:00:06;101117.44;;;21.43;75.70
54270;BME280;40181;51.560;13.000;2022-08-25T00:02:36;101119.91;;;21.52;74.99
54270;BME280;40181;51.560;13.000;2022-08-25T00:05:05;101120.78;;;21.53;75.33
54270;BME280;40181;51.560;13.000;2022-08-25T00:07:37;101118.13;;;21.53;75.59
54270;BME280;40181;51.560;13.000;2022-08-25T00:10:06;101120.94;;;21.47;76.16
54270;BME280;40181;51.560;13.000;2022-08-25T00:12:36;101123.72;;;21.42;76.33
54270;BME280;40181;51.560;13.000;2022-08-25T00:15:05;101123.63;;;21.45;75.69
54270;BME280;40181;51.560;13.000;2022-08-25T00:17:35;101130.09;;;21.35;76.26
54270;BME280;40181;51.560;13.000;2022-08-25T00:20:05;101127.41;;;21.36;76.65
54270;BME280;40181;51.560;13.000;2022-08-25T00:22:37;101129.06;;;21.40;76.69
54270;BME280;40181;51.560;13.000;2022-08-25T00:25:07;101124.03;;;21.28;76.59
54270;BME280;40181;51.560;13.000;2022-08-25T00:27:37;101121.47;;;21.22;77.44
54270;BME280;40181;51.560;13.000;2022-08-25T00:30:08;101120.56;;;21.23;76.96
54270;BME280;40181;51.560;13.000;2022-08-25T00:32:38;101120.47;;;21.27;77.01
54270;BME280;40181;51.560;13.000;2022-08-25T00:35:07;101119.00;;;21.12;77.90
54270;BME280;40181;51.560;13.000;2022-08-25T00:37:39;101113.66;;;21.12;78.02
54270;BME280;40181;51.560;13.000;2022-08-25T00:40:08;101121.69;;;21.11;77.60
54270;BME280;40181;51.560;13.000;2022-08-25T00:42:38;101114.50;;;21.14;77.59
54270;BME280;40181;51.560;13.000;2022-08-25T00:45:07;101118.81;;;21.20;77.19
54270;BME280;40181;51.560;13.000;2022-08-25T00:47:37;101102.50;;;20.93;78.73
54270;BME280;40181;51.560;13.000;2022-08-25T00:50:06;101100.50;;;21.05;78.08
54270;BME280;40181;51.560;13.000;2022-08-25T00:52:40;101113.34;;;20.85;78.76
54270;BME280;40181;51.560;13.000;2022-08-25T00:55:12;101111.59;;;20.83;79.32
54270;BME280;40181;51.560;13.000;2022-08-25T00:57:46;101108.84;;;20.87;78.87
54270;BME280;40181;51.560;13.000;2022-08-25T01:00:22;101106.97;;;20.93;78.48
54270;BME280;40181;51.560;13.000;2022-08-25T01:02:52;101104.41;;;20.86;79.08
54270;BME280;40181;51.560;13.000;2022-08-25T01:05:22;101111.59;;;20.84;78.72
54270;BME280;40181;51.560;13.000;2022-08-25T01:07:54;101116.72;;;20.94;78.72
54270;BME280;40181;51.560;13.000;2022-08-25T01:10:27;101116.66;;;20.97;78.34
54270;BME280;40181;51.560;13.000;2022-08-25T01:12:57;101113.25;;;20.90;78.13
54270;BME280;40181;51.560;13.000;2022-08-25T01:15:29;101102.06;;;20.69;79.25
54270;BME280;40181;51.560;13.000;2022-08-25T01:17:58;101108.06;;;20.82;79.83
54270;BME280;40181;51.560;13.000;2022-08-25T01:20:28;101112.50;;;20.83;79.58
54270;BME280;40181;51.560;13.000;2022-08-25T01:23:01;101113.16;;;20.95;78.62
54270;BME280;40181;51.560;13.000;2022-08-25T01:25:32;101107.16;;;20.83;78.97
54270;BME280;40181;51.560;13.000;2022-08-25T01:28:06;101103.63;;;20.81;79.73
54270;BME280;40181;51.560;13.000;2022-08-25T01:30:36;101096.56;;;20.77;79.58
54270;BME280;40181;51.560;13.000;2022-08-25T01:33:06;101092.88;;;20.84;79.55
54270;BME280;40181;51.560;13.000;2022-08-25T01:35:36;101100.72;;;20.94;78.85
54270;BME280;40181;51.560;13.000;2022-08-25T01:38:08;101102.72;;;20.81;79.44
54270;BME280;40181;51.560;13.000;2022-08-25T01:40:37;101089.41;;;20.79;79.07
54270;BME280;40181;51.560;13.000;2022-08-25T01:43:11;101095.66;;;20.78;79.47
54270;BME280;40181;51.560;13.000;2022-08-25T01:45:44;101087.81;;;20.69;80.52
54270;BME280;40181;51.560;13.000;2022-08-25T01:48:14;101093.16;;;20.70;80.03
54270;BME280;40181;51.560;13.000;2022-08-25T01:50:43;101093.25;;;20.66;80.51
54270;BME280;40181;51.560;13.000;2022-08-25T01:53:17;101089.69;;;20.65;81.02
54270;BME280;40181;51.560;13.000;2022-08-25T01:55:49;101093.31;;;20.63;81.12
54270;BME280;40181;51.560;13.000;2022-08-25T01:58:20;101092.59;;;20.54;81.25
54270;BME280;40181;51.560;13.000;2022-08-25T02:00:52;101089.81;;;20.59;81.27
54270;BME280;40181;51.560;13.000;2022-08-25T02:03:25;101086.44;;;20.49;81.82
54270;BME280;40181;51.560;13.000;2022-08-25T02:05:56;101090.03;;;20.48;81.61
54270;BME280;40181;51.560;13.000;2022-08-25T02:08:28;101097.13;;;20.49;81.43
54270;BME280;40181;51.560;13.000;2022-08-25T02:10:57;101090.84;;;20.52;81.45
54270;BME280;40181;51.560;13.000;2022-08-25T02:13:26;101094.34;;;20.55;81.04
54270;BME280;40181;51.560;13.000;2022-08-25T02:15:55;101102.66;;;20.38;82.05
54270;BME280;40181;51.560;13.000;2022-08-25T02:18:26;101084.63;;;20.51;81.47
54270;BME280;40181;51.560;13.000;2022-08-25T02:20:55;101081.91;;;20.54;81.11
54270;BME280;40181;51.560;13.000;2022-08-25T02:23:24;101070.78;;;20.30;82.77
54270;BME280;40181;51.560;13.000;2022-08-25T02:25:55;101081.47;;;20.29;82.83
54270;BME280;40181;51.560;13.000;2022-08-25T02:28:24;101088.44;;;20.38;82.88
54270;BME280;40181;51.560;13.000;2022-08-25T02:30:53;101080.56;;;20.31;83.00
54270;BME280;40181;51.560;13.000;2022-08-25T02:33:22;101088.47;;;20.36;83.16
54270;BME280;40181;51.560;13.000;2022-08-25T02:35:51;101083.84;;;20.46;82.03
54270;BME280;40181;51.560;13.000;2022-08-25T02:38:20;101092.31;;;20.21;82.64
54270;BME280;40181;51.560;13.000;2022-08-25T02:40:54;101089.44;;;20.32;82.88
54270;BME280;40181;51.560;13.000;2022-08-25T02:43:23;101085.66;;;19.95;84.61
54270;BME280;40181;51.560;13.000;2022-08-25T02:45:53;101073.72;;;20.18;83.37
54270;BME280;40181;51.560;13.000;2022-08-25T02:48:23;101083.63;;;20.10;83.35
54270;BME280;40181;51.560;13.000;2022-08-25T02:50:52;101081.91;;;20.07;84.05
54270;BME280;40181;51.560;13.000;2022-08-25T02:53:21;101075.81;;;19.99;83.78
54270;BME280;40181;51.560;13.000;2022-08-25T02:55:50;101072.50;;;19.83;84.90
54270;BME280;40181;51.560;13.000;2022-08-25T02:58:21;101063.69;;;19.79;85.33
54270;BME280;40181;51.560;13.000;2022-08-25T03:00:50;101066.16;;;19.90;84.77
54270;BME280;40181;51.560;13.000;2022-08-25T03:03:20;101060.94;;;19.84;85.56
54270;BME280;40181;51.560;13.000;2022-08-25T03:05:49;101060.91;;;19.85;85.20
54270;BME280;40181;51.560;13.000;2022-08-25T03:08:18;101065.50;;;19.77;85.60
54270;BME280;40181;51.560;13.000;2022-08-25T03:10:47;101071.53;;;19.88;84.90
54270;BME280;40181;51.560;13.000;2022-08-25T03:13:16;101069.84;;;19.81;85.25
54270;BME280;40181;51.560;13.000;2022-08-25T03:15:47;101064.47;;;19.84;85.79
54270;BME280;40181;51.560;13.000;2022-08-25T03:18:16;101078.47;;;20.00;84.45
54270;BME280;40181;51.560;13.000;2022-08-25T03:20:47;101076.88;;;19.87;84.90
54270;BME280;40181;51.560;13.000;2022-08-25T03:23:15;101078.50;;;19.97;84.20
54270;BME280;40181;51.560;13.000;2022-08-25T03:25:44;101078.03;;;19.70;86.51
54270;BME280;40181;51.560;13.000;2022-08-25T03:28:31;101071.78;;;19.73;86.16
54270;BME280;40181;51.560;13.000;2022-08-25T03:31:03;101065.34;;;19.85;85.71
54270;BME280;40181;51.560;13.000;2022-08-25T03:33:32;101075.88;;;19.96;85.09
54270;BME280;40181;51.560;13.000;2022-08-25T03:36:02;101074.09;;;19.93;85.58
54270;BME280;40181;51.560;13.000;2022-08-25T03:38:32;101070.63;;;19.88;85.32
54270;BME280;40181;51.560;13.000;2022-08-25T03:41:09;101070.69;;;19.85;86.34
54270;BME280;40181;51.560;13.000;2022-08-25T03:43:40;101070.59;;;19.91;85.65
54270;BME280;40181;51.560;13.000;2022-08-25T03:46:17;101069.94;;;19.76;85.96
54270;BME280;40181;51.560;13.000;2022-08-25T03:48:46;101073.28;;;19.88;85.84
54270;BME280;40181;51.560;13.000;2022-08-25T03:51:19;101069.16;;;19.70;86.24
54270;BME280;40181;51.560;13.000;2022-08-25T03:53:48;101059.59;;;19.56;87.51
54270;BME280;40181;51.560;13.000;2022-08-25T03:56:17;101072.63;;;19.75;86.79
54270;BME280;40181;51.560;13.000;2022-08-25T03:58:46;101074.25;;;19.84;86.46
54270;BME280;40181;51.560;13.000;2022-08-25T04:01:18;101068.25;;;19.71;87.24
54270;BME280;40181;51.560;13.000;2022-08-25T04:03:47;101061.19;;;19.68;87.16
54270;BME280;40181;51.560;13.000;2022-08-25T04:06:16;101068.34;;;19.65;86.98
54270;BME280;40181;51.560;13.000;2022-08-25T04:08:45;101058.53;;;19.67;87.11
54270;BME280;40181;51.560;13.000;2022-08-25T04:11:17;101054.16;;;19.64;87.45
54270;BME280;40181;51.560;13.000;2022-08-25T04:13:50;101057.75;;;19.60;88.04
54270;BME280;40181;51.560;13.000;2022-08-25T04:16:23;101052.34;;;19.66;87.10
54270;BME280;40181;51.560;13.000;2022-08-25T04:18:54;101064.09;;;19.53;87.65
54270;BME280;40181;51.560;13.000;2022-08-25T04:21:24;101068.69;;;19.43;88.05
54270;BME280;40181;51.560;13.000;2022-08-25T04:23:54;101058.97;;;19.40;88.61
54270;BME280;40181;51.560;13.000;2022-08-25T04:26:24;101056.31;;;19.39;88.70
54270;BME280;40181;51.560;13.000;2022-08-25T04:28:55;101059.06;;;19.34;89.22
54270;BME280;40181;51.560;13.000;2022-08-25T04:31:28;101060.19;;;19.17;89.38
54270;BME280;40181;51.560;13.000;2022-08-25T04:34:00;101058.34;;;19.23;89.13
54270;BME280;40181;51.560;13.000;2022-08-25T04:36:29;101058.25;;;19.29;89.51
54270;BME280;40181;51.560;13.000;2022-08-25T04:38:58;101058.28;;;19.27;89.34
54270;BME280;40181;51.560;13.000;2022-08-25T04:41:27;101060.16;;;19.19;89.66
54270;BME280;40181;51.560;13.000;2022-08-25T04:43:56;101064.38;;;19.34;89.49
54270;BME280;40181;51.560;13.000;2022-08-25T04:46:30;101057.28;;;19.36;89.04
54270;BME280;40181;51.560;13.000;2022-08-25T04:49:00;101067.38;;;19.12;90.23
54270;BME280;40181;51.560;13.000;2022-08-25T04:51:30;101067.16;;;19.28;89.86
54270;BME280;40181;51.560;13.000;2022-08-25T04:54:02;101067.38;;;19.12;90.23
54270;BME280;40181;51.560;13.000;2022-08-25T04:56:32;101064.72;;;19.11;90.87
54270;BME280;40181;51.560;13.000;2022-08-25T04:59:02;101077.91;;;19.20;89.96
54270;BME280;40181;51.560;13.000;2022-08-25T05:01:34;101075.59;;;18.90;91.56
54270;BME280;40181;51.560;13.000;2022-08-25T05:04:05;101087.06;;;18.96;91.30
54270;BME280;40181;51.560;13.000;2022-08-25T05:06:36;101078.69;;;19.27;89.84
54270;BME280;40181;51.560;13.000;2022-08-25T05:09:05;101082.38;;;19.16;90.77
54270;BME280;40181;51.560;13.000;2022-08-25T05:11:34;101078.75;;;19.22;90.08
54270;BME280;40181;51.560;13.000;2022-08-25T05:14:03;101082.31;;;19.23;90.31
54270;BME280;40181;51.560;13.000;2022-08-25T05:16:38;101082.25;;;19.27;89.74
54270;BME280;40181;51.560;13.000;2022-08-25T05:19:07;101084.91;;;19.27;90.24
54270;BME280;40181;51.560;13.000;2022-08-25T05:21:36;101085.81;;;19.25;90.45
54270;BME280;40181;51.560;13.000;2022-08-25T05:24:05;101072.63;;;19.15;91.13
54270;BME280;40181;51.560;13.000;2022-08-25T05:26:34;101090.34;;;19.19;90.69
54270;BME280;40181;51.560;13.000;2022-08-25T05:29:04;101087.50;;;19.30;90.63
54270;BME280;40181;51.560;13.000;2022-08-25T05:31:34;101075.03;;;19.34;90.23
54270;BME280;40181;51.560;13.000;2022-08-25T05:34:07;101071.81;;;19.12;92.13
54270;BME280;40181;51.560;13.000;2022-08-25T05:36:36;101074.59;;;18.99;92.57
54270;BME280;40181;51.560;13.000;2022-08-25T05:39:07;101073.34;;;19.27;92.56
54270;BME280;40181;51.560;13.000;2022-08-25T05:41:36;101061.84;;;19.25;92.19
54270;BME280;40181;51.560;13.000;2022-08-25T05:44:05;101068.66;;;19.46;91.03
54270;BME280;40181;51.560;13.000;2022-08-25T05:46:34;101066.97;;;19.39;91.83
54270;BME280;40181;51.560;13.000;2022-08-25T05:49:05;101071.28;;;19.47;91.62
54270;BME280;40181;51.560;13.000;2022-08-25T05:51:34;101061.53;;;19.46;92.66
54270;BME280;40181;51.560;13.000;2022-08-25T05:54:03;101070.31;;;19.52;92.14
54270;BME280;40181;51.560;13.000;2022-08-25T05:56:32;101066.69;;;19.57;92.31
54270;BME280;40181;51.560;13.000;2022-08-25T05:59:01;101060.59;;;19.49;93.40
54270;BME280;40181;51.560;13.000;2022-08-25T06:01:29;101067.59;;;19.56;92.90
54270;BME280;40181;51.560;13.000;2022-08-25T06:04:25;101062.34;;;19.52;94.22
54270;BME280;40181;51.560;13.000;2022-08-25T06:06:54;101072.84;;;19.61;94.22
54270;BME280;40181;51.560;13.000;2022-08-25T06:09:22;101071.09;;;19.60;94.26
54270;BME280;40181;51.560;13.000;2022-08-25T06:11:51;101058.53;;;19.67;94.23
54270;BME280;40181;51.560;13.000;2022-08-25T06:14:21;101062.94;;;19.69;93.68
54270;BME280;40181;51.560;13.000;2022-08-25T06:16:51;101068.25;;;19.72;94.57
54270;BME280;40181;51.560;13.000;2022-08-25T06:19:21;101054.88;;;19.74;94.09
54270;BME280;40181;51.560;13.000;2022-08-25T06:21:53;101054.16;;;19.64;94.20
54270;BME280;40181;51.560;13.000;2022-08-25T06:24:22;101057.47;;;19.79;93.81
54270;BME280;40181;51.560;13.000;2022-08-25T06:26:52;101053.69;;;19.92;93.63
54270;BME280;40181;51.560;13.000;2022-08-25T06:29:21;101066.13;;;19.95;93.71
54270;BME280;40181;51.560;13.000;2022-08-25T06:31:50;101063.59;;;19.85;94.81
54270;BME280;40181;51.560;13.000;2022-08-25T06:34:19;101059.97;;;19.88;94.13
54270;BME280;40181;51.560;13.000;2022-08-25T06:36:51;101070.59;;;19.89;94.22
54270;BME280;40181;51.560;13.000;2022-08-25T06:39:20;101066.81;;;20.04;93.99
54270;BME280;40181;51.560;13.000;2022-08-25T06:41:50;101052.56;;;20.06;94.29
54270;BME280;40181;51.560;13.000;2022-08-25T06:44:20;101060.31;;;20.20;92.99
54270;BME280;40181;51.560;13.000;2022-08-25T06:46:50;101060.41;;;20.15;93.44
54270;BME280;40181;51.560;13.000;2022-08-25T06:49:19;101068.28;;;20.23;93.22
54270;BME280;40181;51.560;13.000;2022-08-25T06:51:54;101069.97;;;20.27;92.96
54270;BME280;40181;51.560;13.000;2022-08-25T06:54:23;101060.13;;;20.30;93.34
54270;BME280;40181;51.560;13.000;2022-08-25T06:56:52;101070.13;;;20.19;94.02
54270;BME280;40181;51.560;13.000;2022-08-25T06:59:21;101059.13;;;20.36;92.89
54270;BME280;40181;51.560;13.000;2022-08-25T07:01:49;101059.69;;;20.52;92.72
54270;BME280;40181;51.560;13.000;2022-08-25T07:04:18;101053.38;;;20.58;92.45
54270;BME280;40181;51.560;13.000;2022-08-25T07:06:47;101055.16;;;20.56;92.54
54270;BME280;40181;51.560;13.000;2022-08-25T07:09:19;101057.81;;;20.57;92.73
54270;BME280;40181;51.560;13.000;2022-08-25T07:11:48;101054.78;;;20.74;91.25
54270;BME280;40181;51.560;13.000;2022-08-25T07:14:17;101052.41;;;20.60;92.55
54270;BME280;40181;51.560;13.000;2022-08-25T07:16:47;101051.47;;;20.63;91.88
54270;BME280;40181;51.560;13.000;2022-08-25T07:19:16;101057.44;;;20.74;91.61
54270;BME280;40181;51.560;13.000;2022-08-25T07:21:48;101055.69;;;20.75;91.62
54270;BME280;40181;51.560;13.000;2022-08-25T07:24:21;101062.53;;;20.89;90.92
54270;BME280;40181;51.560;13.000;2022-08-25T07:26:50;101049.66;;;21.08;89.69
54270;BME280;40181;51.560;13.000;2022-08-25T07:29:20;101058.41;;;21.14;89.85
54270;BME280;40181;51.560;13.000;2022-08-25T07:31:51;101055.59;;;21.21;90.00
54270;BME280;40181;51.560;13.000;2022-08-25T07:34:20;101057.22;;;21.28;89.95
54270;BME280;40181;51.560;13.000;2022-08-25T07:37:01;101054.41;;;21.34;89.30
54270;BME280;40181;51.560;13.000;2022-08-25T07:39:33;101051.47;;;21.45;89.02
54270;BME280;40181;51.560;13.000;2022-08-25T07:42:02;101048.50;;;21.58;88.81
54270;BME280;40181;51.560;13.000;2022-08-25T07:44:33;101056.28;;;21.67;88.58
54270;BME280;40181;51.560;13.000;2022-08-25T07:47:01;101052.66;;;21.71;87.50
54270;BME280;40181;51.560;13.000;2022-08-25T07:49:31;101063.31;;;21.73;85.23
54270;BME280;40181;51.560;13.000;2022-08-25T07:52:00;101054.38;;;21.74;85.17
54270;BME280;40181;51.560;13.000;2022-08-25T07:54:29;101053.88;;;21.92;85.61
54270;BME280;40181;51.560;13.000;2022-08-25T07:57:00;101043.16;;;21.94;85.68
54270;BME280;40181;51.560;13.000;2022-08-25T07:59:30;101050.97;;;22.02;84.76
54270;BME280;40181;51.560;13.000;2022-08-25T08:01:58;101053.66;;;22.02;84.93
54270;BME280;40181;51.560;13.000;2022-08-25T08:04:27;101053.44;;;22.09;84.69
54270;BME280;40181;51.560;13.000;2022-08-25T08:06:56;101042.69;;;22.11;84.52
54270;BME280;40181;51.560;13.000;2022-08-25T08:09:25;101046.97;;;22.18;84.22
54270;BME280;40181;51.560;13.000;2022-08-25T08:11:57;101037.63;;;22.33;84.21
54270;BME280;40181;51.560;13.000;2022-08-25T08:14:26;101047.41;;;22.34;82.88
54270;BME280;40181;51.560;13.000;2022-08-25T08:16:55;101048.97;;;22.43;82.26
54270;BME280;40181;51.560;13.000;2022-08-25T08:19:24;101044.47;;;22.44;82.09
54270;BME280;40181;51.560;13.000;2022-08-25T08:21:56;101033.53;;;22.53;81.51
54270;BME280;40181;51.560;13.000;2022-08-25T08:24:25;101040.31;;;22.65;81.51
54270;BME280;40181;51.560;13.000;2022-08-25T08:26:58;101041.16;;;22.67;81.18
54270;BME280;40181;51.560;13.000;2022-08-25T08:29:29;101028.28;;;22.80;81.08
54270;BME280;40181;51.560;13.000;2022-08-25T08:31:58;101030.47;;;22.97;79.87
54270;BME280;40181;51.560;13.000;2022-08-25T08:34:27;101025.63;;;23.08;78.75
54270;BME280;40181;51.560;13.000;2022-08-25T08:36:57;101023.78;;;23.11;78.38
54270;BME280;40181;51.560;13.000;2022-08-25T08:39:26;101019.78;;;23.24;77.38
54270;BME280;40181;51.560;13.000;2022-08-25T08:44:54;101018.28;;;23.44;78.27
54270;BME280;40181;51.560;13.000;2022-08-25T08:47:57;101014.31;;;23.56;76.10
54270;BME280;40181;51.560;13.000;2022-08-25T08:50:36;101006.44;;;23.76;74.71
54270;BME280;40181;51.560;13.000;2022-08-25T08:53:10;101005.34;;;23.82;74.93
54270;BME280;40181;51.560;13.000;2022-08-25T08:55:44;101006.91;;;23.89;74.89
54270;BME280;40181;51.560;13.000;2022-08-25T08:58:18;100990.97;;;24.10;72.29
54270;BME280;40181;51.560;13.000;2022-08-25T09:00:51;100994.59;;;24.09;73.23
54270;BME280;40181;51.560;13.000;2022-08-25T09:03:26;100993.31;;;24.20;72.49
54270;BME280;40181;51.560;13.000;2022-08-25T09:05:59;100983.34;;;24.23;71.78
54270;BME280;40181;51.560;13.000;2022-08-25T09:08:31;100985.91;;;24.26;70.66
54270;BME280;40181;51.560;13.000;2022-08-25T09:11:00;100981.09;;;24.36;71.67
54270;BME280;40181;51.560;13.000;2022-08-25T09:13:37;100980.59;;;24.49;73.68
54270;BME280;40181;51.560;13.000;2022-08-25T09:16:15;100971.66;;;24.50;71.61
54270;BME280;40181;51.560;13.000;2022-08-25T09:19:06;100975.53;;;24.65;69.49
54270;BME280;40181;51.560;13.000;2022-08-25T09:21:42;100978.63;;;24.78;67.25
54270;BME280;40181;51.560;13.000;2022-08-25T09:24:22;100971.66;;;24.96;66.37
54270;BME280;40181;51.560;13.000;2022-08-25T09:27:02;100958.09;;;25.21;69.09
54270;BME280;40181;51.560;13.000;2022-08-25T09:29:44;100969.72;;;25.22;64.62
54270;BME280;40181;51.560;13.000;2022-08-25T09:32:21;100972.03;;;25.09;65.09
54270;BME280;40181;51.560;13.000;2022-08-25T09:34:51;100969.47;;;25.28;66.27
54270;BME280;40181;51.560;13.000;2022-08-25T09:37:20;100961.84;;;25.38;64.21
54270;BME280;40181;51.560;13.000;2022-08-25T09:39:50;100963.06;;;25.53;66.26
54270;BME280;40181;51.560;13.000;2022-08-25T09:42:19;100962.28;;;25.49;63.96
54270;BME280;40181;51.560;13.000;2022-08-25T09:44:54;100960.66;;;25.45;64.93
54270;BME280;40181;51.560;13.000;2022-08-25T09:47:23;100951.53;;;25.49;64.57
54270;BME280;40181;51.560;13.000;2022-08-25T09:49:55;100953.47;;;25.46;63.51
54270;BME280;40181;51.560;13.000;2022-08-25T09:52:29;100946.13;;;25.72;65.06
54270;BME280;40181;51.560;13.000;2022-08-25T09:55:01;100943.34;;;25.94;64.10
54270;BME280;40181;51.560;13.000;2022-08-25T09:57:50;100953.84;;;26.21;64.86
54270;BME280;40181;51.560;13.000;2022-08-25T10:00:24;100947.50;;;26.22;62.77
54270;BME280;40181;51.560;13.000;2022-08-25T10:05:48;100939.84;;;26.32;62.29
54270;BME280;40181;51.560;13.000;2022-08-25T10:08:29;100944.91;;;26.19;63.01
54270;BME280;40181;51.560;13.000;2022-08-25T10:11:02;100939.72;;;26.14;61.28
54270;BME280;40181;51.560;13.000;2022-08-25T10:13:34;100936.38;;;26.09;62.17
54270;BME280;40181;51.560;13.000;2022-08-25T10:16:10;100916.88;;;26.04;61.71
54270;BME280;40181;51.560;13.000;2022-08-25T10:18:40;100915.66;;;26.11;61.79
54270;BME280;40181;51.560;13.000;2022-08-25T10:21:10;100924.06;;;26.24;61.70
54270;BME280;40181;51.560;13.000;2022-08-25T10:23:42;100908.56;;;26.29;61.72
54270;BME280;40181;51.560;13.000;2022-08-25T10:26:15;100913.22;;;26.26;60.73
54270;BME280;40181;51.560;13.000;2022-08-25T10:28:55;100907.34;;;26.16;58.91
54270;BME280;40181;51.560;13.000;2022-08-25T10:31:34;100907.63;;;26.30;59.74
54270;BME280;40181;51.560;13.000;2022-08-25T10:34:07;100904.78;;;26.33;59.69
54270;BME280;40181;51.560;13.000;2022-08-25T10:36:49;100893.00;;;26.36;59.02
54270;BME280;40181;51.560;13.000;2022-08-25T10:39:28;100895.44;;;26.60;61.14
54270;BME280;40181;51.560;13.000;2022-08-25T10:42:05;100893.38;;;26.84;59.35
54270;BME280;40181;51.560;13.000;2022-08-25T10:44:41;100877.91;;;26.88;57.48
54270;BME280;40181;51.560;13.000;2022-08-25T10:47:37;100884.94;;;27.27;60.66
54270;BME280;40181;51.560;13.000;2022-08-25T10:50:21;100880.09;;;27.16;57.17
54270;BME280;40181;51.560;13.000;2022-08-25T10:52:57;100868.75;;;27.45;57.94
54270;BME280;40181;51.560;13.000;2022-08-25T10:55:33;100862.38;;;27.64;57.15
54270;BME280;40181;51.560;13.000;2022-08-25T10:58:10;100864.63;;;27.55;55.40
54270;BME280;40181;51.560;13.000;2022-08-25T11:00:48;100865.28;;;27.25;55.07
54270;BME280;40181;51.560;13.000;2022-08-25T11:03:29;100853.50;;;27.61;56.58
54270;BME280;40181;51.560;13.000;2022-08-25T11:06:09;100865.09;;;27.64;55.57
54270;BME280;40181;51.560;13.000;2022-08-25T11:08:45;100865.25;;;27.60;55.10
54270;BME280;40181;51.560;13.000;2022-08-25T11:11:19;100856.44;;;27.39;55.05
54270;BME280;40181;51.560;13.000;2022-08-25T11:13:53;100847.16;;;27.63;54.83
54270;BME280;40181;51.560;13.000;2022-08-25T11:16:27;100849.19;;;27.75;54.96
54270;BME280;40181;51.560;13.000;2022-08-25T11:19:08;100842.53;;;27.65;54.64
54270;BME280;40181;51.560;13.000;2022-08-25T11:21:45;100843.06;;;27.71;55.44
54270;BME280;40181;51.560;13.000;2022-08-25T11:24:31;100842.56;;;27.81;53.67
54270;BME280;40181;51.560;13.000;2022-08-25T11:27:08;100834.00;;;28.06;54.91
54270;BME280;40181;51.560;13.000;2022-08-25T11:29:42;100835.06;;;28.36;55.31
54270;BME280;40181;51.560;13.000;2022-08-25T11:32:20;100827.44;;;28.10;52.80
54270;BME280;40181;51.560;13.000;2022-08-25T11:34:52;100830.75;;;27.99;52.08
54270;BME280;40181;51.560;13.000;2022-08-25T11:37:23;100825.06;;;28.38;53.54
54270;BME280;40181;51.560;13.000;2022-08-25T11:40:07;100819.50;;;28.71;56.13
54270;BME280;40181;51.560;13.000;2022-08-25T11:42:49;100812.56;;;28.98;52.93
54270;BME280;40181;51.560;13.000;2022-08-25T11:45:35;100819.84;;;28.81;53.38
54270;BME280;40181;51.560;13.000;2022-08-25T11:48:17;100812.66;;;28.34;51.12
54270;BME280;40181;51.560;13.000;2022-08-25T11:50:59;100813.94;;;28.58;52.11
54270;BME280;40181;51.560;13.000;2022-08-25T11:53:30;100817.19;;;28.49;51.62
54270;BME280;40181;51.560;13.000;2022-08-25T11:56:00;100809.53;;;28.41;50.70
54270;BME280;40181;51.560;13.000;2022-08-25T11:58:41;100807.69;;;28.42;50.43
54270;BME280;40181;51.560;13.000;2022-08-25T12:04:15;100796.03;;;28.25;50.70
54270;BME280;40181;51.560;13.000;2022-08-25T12:07:18;100805.44;;;28.34;52.65
54270;BME280;40181;51.560;13.000;2022-08-25T12:10:12;100802.09;;;28.61;52.11
54270;BME280;40181;51.560;13.000;2022-08-25T12:15:33;100795.13;;;29.18;55.58
54270;BME280;40181;51.560;13.000;2022-08-25T12:18:37;100790.97;;;29.12;49.93
54270;BME280;40181;51.560;13.000;2022-08-25T12:21:12;100784.44;;;28.86;50.77
54270;BME280;40181;51.560;13.000;2022-08-25T12:24:02;100794.88;;;28.92;49.85
54270;BME280;40181;51.560;13.000;2022-08-25T12:26:39;100780.41;;;29.08;49.68
54270;BME280;40181;51.560;13.000;2022-08-25T12:29:13;100783.28;;;28.90;49.42
54270;BME280;40181;51.560;13.000;2022-08-25T12:32:02;100781.34;;;28.92;50.21
54270;BME280;40181;51.560;13.000;2022-08-25T12:40:51;100777.78;;;28.45;51.09
54270;BME280;40181;51.560;13.000;2022-08-25T12:43:26;100767.59;;;28.50;50.96
54270;BME280;40181;51.560;13.000;2022-08-25T12:48:56;100766.03;;;29.22;50.83
54270;BME280;40181;51.560;13.000;2022-08-25T12:51:26;100773.56;;;29.02;50.44
54270;BME280;40181;51.560;13.000;2022-08-25T12:54:10;100771.13;;;28.97;51.37
54270;BME280;40181;51.560;13.000;2022-08-25T12:56:46;100769.22;;;29.14;49.69
54270;BME280;40181;51.560;13.000;2022-08-25T12:59:17;100762.63;;;28.89;49.00
54270;BME280;40181;51.560;13.000;2022-08-25T13:01:53;100769.28;;;28.83;49.20
54270;BME280;40181;51.560;13.000;2022-08-25T13:04:34;100762.63;;;28.89;48.87
54270;BME280;40181;51.560;13.000;2022-08-25T13:07:16;100754.50;;;28.58;48.88
54270;BME280;40181;51.560;13.000;2022-08-25T13:12:45;100750.16;;;28.87;49.55
54270;BME280;40181;51.560;13.000;2022-08-25T13:15:24;100745.38;;;29.21;48.92
54270;BME280;40181;51.560;13.000;2022-08-25T13:18:15;100735.53;;;29.49;49.84
54270;BME280;40181;51.560;13.000;2022-08-25T13:20:47;100739.31;;;29.61;47.34
54270;BME280;40181;51.560;13.000;2022-08-25T13:23:19;100733.34;;;29.83;48.90
54270;BME280;40181;51.560;13.000;2022-08-25T13:25:52;100740.16;;;29.61;50.46
54270;BME280;40181;51.560;13.000;2022-08-25T13:28:27;100725.09;;;29.72;48.18
54270;BME280;40181;51.560;13.000;2022-08-25T13:30:57;100730.13;;;29.63;48.70